sensor_id;sensor_type;location;lat;lon;timestamp;P1;durP1;ratioP1;P2;durP2;ratioP2
1651;SDS011;823;49.028;8.454;2022-11-15T00:04:19;32.38;;;15.57;;
1651;SDS011;823;49.028;8.454;2022-11-15T00:09:19;26.77;;;12.45;;
1651;SDS011;823;49.028;8.454;2022-11-15T00:14:19;18.05;;;10.68;;
1651;SDS011;823;49.028;8.454;2022-11-15T00:19:20;22.90;;;12.00;;
1651;SDS011;823;49.028;8.454;2022-11-15T00:24:20;19.07;;;10.13;;
1651;SDS011;823;49.028;8.454;2022-11-15T00:29:21;23.23;;;11.47;;
1651;SDS011;823;49.028;8.454;2022-11-15T00:34:21;25.40;;;12.50;;
1651;SDS011;823;49.028;8.454;2022-11-15T00:39:21;19.90;;;10.97;;
1651;SDS011;823;49.028;8.454;2022-11-15T00:44:22;18.07;;;10.50;;
1651;SDS011;823;49.028;8.454;2022-11-15T00:49:22;25.15;;;12.52;;
1651;SDS011;823;49.028;8.454;2022-11-15T00:54:22;26.33;;;12.70;;
1651;SDS011;823;49.028;8.454;2022-11-15T00:59:23;28.90;;;12.23;;
1651;SDS011;823;49.028;8.454;2022-11-15T01:04:24;38.80;;;13.87;;
1651;SDS011;823;49.028;8.454;2022-11-15T01:09:25;24.23;;;12.70;;
1651;SDS011;823;49.028;8.454;2022-11-15T01:14:25;21.13;;;9.87;;
1651;SDS011;823;49.028;8.454;2022-11-15T01:19:25;18.83;;;11.20;;
1651;SDS011;823;49.028;8.454;2022-11-15T01:24:26;26.20;;;10.73;;
1651;SDS011;823;49.028;8.454;2022-11-15T01:29:26;23.57;;;11.07;;
1651;SDS011;823;49.028;8.454;2022-11-15T01:34:26;18.13;;;11.05;;
1651;SDS011;823;49.028;8.454;2022-11-15T01:39:27;18.05;;;10.68;;
1651;SDS011;823;49.028;8.454;2022-11-15T01:49:32;22.47;;;10.47;;
1651;SDS011;823;49.028;8.454;2022-11-15T01:54:34;22.77;;;10.60;;
1651;SDS011;823;49.028;8.454;2022-11-15T01:59:35;19.23;;;10.00;;
1651;SDS011;823;49.028;8.454;2022-11-15T02:04:40;16.90;;;10.70;;
1651;SDS011;823;49.028;8.454;2022-11-15T02:09:43;17.80;;;10.57;;
1651;SDS011;823;49.028;8.454;2022-11-15T02:14:44;17.00;;;10.80;;
1651;SDS011;823;49.028;8.454;2022-11-15T02:25:25;19.13;;;10.13;;
1651;SDS011;823;49.028;8.454;2022-11-15T02:36:06;13.37;;;7.93;;
1651;SDS011;823;49.028;8.454;2022-11-15T02:41:17;17.43;;;8.40;;
1651;SDS011;823;49.028;8.454;2022-11-15T02:52:08;13.90;;;8.00;;
1651;SDS011;823;49.028;8.454;2022-11-15T02:57:12;14.33;;;8.73;;
1651;SDS011;823;49.028;8.454;2022-11-15T03:07:56;15.67;;;8.53;;
1651;SDS011;823;49.028;8.454;2022-11-15T03:18:34;24.33;;;8.80;;
1651;SDS011;823;49.028;8.454;2022-11-15T03:23:37;14.77;;;7.93;;
1651;SDS011;823;49.028;8.454;2022-11-15T03:34:01;11.50;;;7.10;;
1651;SDS011;823;49.028;8.454;2022-11-15T03:39:06;12.37;;;7.40;;
1651;SDS011;823;49.028;8.454;2022-11-15T03:49:27;15.67;;;7.23;;
1651;SDS011;823;49.028;8.454;2022-11-15T03:54:32;15.27;;;7.77;;
1651;SDS011;823;49.028;8.454;2022-11-15T03:59:33;20.30;;;7.00;;
1651;SDS011;823;49.028;8.454;2022-11-15T04:04:33;19.23;;;7.40;;
1651;SDS011;823;49.028;8.454;2022-11-15T04:09:33;13.23;;;7.00;;
1651;SDS011;823;49.028;8.454;2022-11-15T04:14:54;10.93;;;6.87;;
1651;SDS011;823;49.028;8.454;2022-11-15T04:25:36;10.97;;;6.43;;
1651;SDS011;823;49.028;8.454;2022-11-15T04:30:37;10.60;;;7.00;;
1651;SDS011;823;49.028;8.454;2022-11-15T04:35:37;10.13;;;5.83;;
1651;SDS011;823;49.028;8.454;2022-11-15T04:40:38;10.47;;;7.07;;
1651;SDS011;823;49.028;8.454;2022-11-15T04:45:38;8.63;;;6.50;;
1651;SDS011;823;49.028;8.454;2022-11-15T04:50:38;13.40;;;6.63;;
1651;SDS011;823;49.028;8.454;2022-11-15T04:55:39;12.83;;;6.23;;
1651;SDS011;823;49.028;8.454;2022-11-15T05:00:39;13.90;;;6.40;;
1651;SDS011;823;49.028;8.454;2022-11-15T05:05:39;8.20;;;5.20;;
1651;SDS011;823;49.028;8.454;2022-11-15T05:10:40;16.97;;;6.60;;
1651;SDS011;823;49.028;8.454;2022-11-15T05:15:40;10.32;;;5.60;;
1651;SDS011;823;49.028;8.454;2022-11-15T05:20:40;9.77;;;5.25;;
1651;SDS011;823;49.028;8.454;2022-11-15T05:25:41;7.23;;;4.83;;
1651;SDS011;823;49.028;8.454;2022-11-15T05:30:41;9.67;;;5.73;;
1651;SDS011;823;49.028;8.454;2022-11-15T05:35:42;12.82;;;6.20;;
1651;SDS011;823;49.028;8.454;2022-11-15T05:40:48;8.90;;;4.80;;
1651;SDS011;823;49.028;8.454;2022-11-15T05:45:49;8.17;;;5.47;;
1651;SDS011;823;49.028;8.454;2022-11-15T05:50:49;9.60;;;5.60;;
1651;SDS011;823;49.028;8.454;2022-11-15T05:55:50;10.10;;;5.60;;
1651;SDS011;823;49.028;8.454;2022-11-15T06:00:51;9.20;;;5.67;;
1651;SDS011;823;49.028;8.454;2022-11-15T06:05:51;11.80;;;6.03;;
1651;SDS011;823;49.028;8.454;2022-11-15T06:10:52;8.37;;;4.60;;
1651;SDS011;823;49.028;8.454;2022-11-15T06:15:54;10.77;;;6.43;;
1651;SDS011;823;49.028;8.454;2022-11-15T06:20:58;11.13;;;6.40;;
1651;SDS011;823;49.028;8.454;2022-11-15T06:26:00;9.17;;;6.40;;
1651;SDS011;823;49.028;8.454;2022-11-15T06:31:02;13.23;;;6.43;;
1651;SDS011;823;49.028;8.454;2022-11-15T06:36:07;11.80;;;5.50;;
1651;SDS011;823;49.028;8.454;2022-11-15T06:41:10;18.43;;;7.90;;
1651;SDS011;823;49.028;8.454;2022-11-15T06:46:11;20.67;;;7.80;;
1651;SDS011;823;49.028;8.454;2022-11-15T06:51:11;16.90;;;9.90;;
1651;SDS011;823;49.028;8.454;2022-11-15T06:56:11;15.57;;;7.70;;
1651;SDS011;823;49.028;8.454;2022-11-15T07:01:12;14.17;;;6.83;;
1651;SDS011;823;49.028;8.454;2022-11-15T07:06:12;14.57;;;6.70;;
1651;SDS011;823;49.028;8.454;2022-11-15T07:11:13;12.45;;;6.45;;
1651;SDS011;823;49.028;8.454;2022-11-15T07:16:13;11.17;;;6.30;;
1651;SDS011;823;49.028;8.454;2022-11-15T07:21:14;13.37;;;6.80;;
1651;SDS011;823;49.028;8.454;2022-11-15T07:26:14;13.27;;;6.17;;
1651;SDS011;823;49.028;8.454;2022-11-15T07:31:14;17.73;;;6.70;;
1651;SDS011;823;49.028;8.454;2022-11-15T07:36:14;12.40;;;5.57;;
1651;SDS011;823;49.028;8.454;2022-11-15T07:41:15;18.17;;;7.07;;
1651;SDS011;823;49.028;8.454;2022-11-15T07:46:15;17.13;;;6.90;;
1651;SDS011;823;49.028;8.454;2022-11-15T07:51:16;9.73;;;5.60;;
1651;SDS011;823;49.028;8.454;2022-11-15T07:56:16;15.23;;;5.70;;
1651;SDS011;823;49.028;8.454;2022-11-15T08:01:17;10.63;;;5.93;;
1651;SDS011;823;49.028;8.454;2022-11-15T08:06:17;11.27;;;5.47;;
1651;SDS011;823;49.028;8.454;2022-11-15T08:11:17;12.53;;;6.03;;
1651;SDS011;823;49.028;8.454;2022-11-15T08:16:18;10.60;;;6.43;;
1651;SDS011;823;49.028;8.454;2022-11-15T08:21:19;14.43;;;6.37;;
1651;SDS011;823;49.028;8.454;2022-11-15T08:26:20;13.97;;;7.57;;
1651;SDS011;823;49.028;8.454;2022-11-15T08:31:20;14.67;;;7.03;;
1651;SDS011;823;49.028;8.454;2022-11-15T08:36:21;12.43;;;6.80;;
1651;SDS011;823;49.028;8.454;2022-11-15T08:41:31;11.23;;;6.13;;
1651;SDS011;823;49.028;8.454;2022-11-15T08:46:35;13.87;;;7.57;;
1651;SDS011;823;49.028;8.454;2022-11-15T08:51:36;13.95;;;6.80;;
1651;SDS011;823;49.028;8.454;2022-11-15T08:56:36;16.33;;;6.38;;
1651;SDS011;823;49.028;8.454;2022-11-15T09:01:36;8.40;;;4.75;;
1651;SDS011;823;49.028;8.454;2022-11-15T09:06:36;8.50;;;4.33;;
1651;SDS011;823;49.028;8.454;2022-11-15T09:11:37;8.15;;;3.90;;
1651;SDS011;823;49.028;8.454;2022-11-15T09:16:37;9.13;;;4.27;;
1651;SDS011;823;49.028;8.454;2022-11-15T09:21:38;10.13;;;4.47;;
1651;SDS011;823;49.028;8.454;2022-11-15T09:26:38;6.22;;;3.45;;
1651;SDS011;823;49.028;8.454;2022-11-15T09:31:39;7.03;;;4.10;;
1651;SDS011;823;49.028;8.454;2022-11-15T09:36:39;11.37;;;4.20;;
1651;SDS011;823;49.028;8.454;2022-11-15T09:42:02;8.82;;;5.20;;
1651;SDS011;823;49.028;8.454;2022-11-15T09:52:39;8.20;;;4.90;;
1651;SDS011;823;49.028;8.454;2022-11-15T09:57:46;14.17;;;4.93;;
1651;SDS011;823;49.028;8.454;2022-11-15T10:02:56;11.40;;;5.67;;
1651;SDS011;823;49.028;8.454;2022-11-15T10:13:15;11.07;;;5.30;;
1651;SDS011;823;49.028;8.454;2022-11-15T10:18:35;9.57;;;4.23;;
1651;SDS011;823;49.028;8.454;2022-11-15T10:23:45;9.07;;;5.20;;
1651;SDS011;823;49.028;8.454;2022-11-15T10:28:46;8.95;;;4.53;;
1651;SDS011;823;49.028;8.454;2022-11-15T10:33:46;6.75;;;4.30;;
1651;SDS011;823;49.028;8.454;2022-11-15T10:49:22;6.27;;;3.80;;
1651;SDS011;823;49.028;8.454;2022-11-15T10:54:37;6.90;;;3.90;;
1651;SDS011;823;49.028;8.454;2022-11-15T10:59:43;11.40;;;3.90;;
1651;SDS011;823;49.028;8.454;2022-11-15T11:04:50;7.67;;;4.60;;
1651;SDS011;823;49.028;8.454;2022-11-15T11:10:02;19.20;;;6.10;;
1651;SDS011;823;49.028;8.454;2022-11-15T11:15:16;8.33;;;5.80;;
1651;SDS011;823;49.028;8.454;2022-11-15T11:20:25;10.40;;;5.33;;
1651;SDS011;823;49.028;8.454;2022-11-15T11:25:48;12.13;;;5.40;;
1651;SDS011;823;49.028;8.454;2022-11-15T12:03:34;10.60;;;4.33;;
1651;SDS011;823;49.028;8.454;2022-11-15T12:08:44;6.80;;;4.20;;
1651;SDS011;823;49.028;8.454;2022-11-15T12:13:50;5.90;;;3.80;;
1651;SDS011;823;49.028;8.454;2022-11-15T12:18:56;6.20;;;3.90;;
1651;SDS011;823;49.028;8.454;2022-11-15T12:24:01;7.53;;;3.80;;
1651;SDS011;823;49.028;8.454;2022-11-15T12:29:17;9.97;;;4.03;;
1651;SDS011;823;49.028;8.454;2022-11-15T12:34:40;7.87;;;4.60;;
1651;SDS011;823;49.028;8.454;2022-11-15T13:01:06;4.50;;;2.73;;
1651;SDS011;823;49.028;8.454;2022-11-15T13:06:08;4.13;;;3.23;;
1651;SDS011;823;49.028;8.454;2022-11-15T13:11:44;6.03;;;2.63;;
1651;SDS011;823;49.028;8.454;2022-11-15T13:16:46;5.73;;;3.40;;
1651;SDS011;823;49.028;8.454;2022-11-15T13:21:48;7.10;;;3.00;;
1651;SDS011;823;49.028;8.454;2022-11-15T13:27:14;10.20;;;3.03;;
1651;SDS011;823;49.028;8.454;2022-11-15T13:32:17;6.40;;;2.70;;
1651;SDS011;823;49.028;8.454;2022-11-15T13:42:21;8.03;;;3.00;;
1651;SDS011;823;49.028;8.454;2022-11-15T13:47:21;4.70;;;2.70;;
1651;SDS011;823;49.028;8.454;2022-11-15T13:52:27;7.10;;;2.67;;
1651;SDS011;823;49.028;8.454;2022-11-15T13:57:44;5.70;;;3.07;;
1651;SDS011;823;49.028;8.454;2022-11-15T14:02:51;6.73;;;2.87;;
1651;SDS011;823;49.028;8.454;2022-11-15T14:08:02;4.40;;;2.23;;
1651;SDS011;823;49.028;8.454;2022-11-15T14:13:29;5.73;;;3.00;;
1651;SDS011;823;49.028;8.454;2022-11-15T14:18:47;4.47;;;3.80;;
1651;SDS011;823;49.028;8.454;2022-11-15T14:23:51;4.90;;;4.40;;
1651;SDS011;823;49.028;8.454;2022-11-15T14:28:52;9.30;;;3.80;;
1651;SDS011;823;49.028;8.454;2022-11-15T14:33:52;5.97;;;2.73;;
1651;SDS011;823;49.028;8.454;2022-11-15T14:38:52;5.10;;;2.53;;
1651;SDS011;823;49.028;8.454;2022-11-15T14:43:54;5.17;;;2.60;;
1651;SDS011;823;49.028;8.454;2022-11-15T14:48:54;4.87;;;2.37;;
1651;SDS011;823;49.028;8.454;2022-11-15T14:53:54;4.70;;;3.13;;
1651;SDS011;823;49.028;8.454;2022-11-15T14:58:55;6.13;;;3.10;;
1651;SDS011;823;49.028;8.454;2022-11-15T15:03:55;8.40;;;2.97;;
1651;SDS011;823;49.028;8.454;2022-11-15T15:08:57;4.93;;;3.03;;
1651;SDS011;823;49.028;8.454;2022-11-15T15:13:57;6.43;;;2.57;;
1651;SDS011;823;49.028;8.454;2022-11-15T15:19:00;8.43;;;3.60;;
1651;SDS011;823;49.028;8.454;2022-11-15T15:24:01;6.63;;;3.47;;
1651;SDS011;823;49.028;8.454;2022-11-15T15:29:02;16.97;;;3.70;;
1651;SDS011;823;49.028;8.454;2022-11-15T15:34:02;5.05;;;3.40;;
1651;SDS011;823;49.028;8.454;2022-11-15T15:39:02;12.23;;;5.23;;
1651;SDS011;823;49.028;8.454;2022-11-15T15:44:03;10.37;;;4.77;;
1651;SDS011;823;49.028;8.454;2022-11-15T15:49:03;11.07;;;4.67;;
1651;SDS011;823;49.028;8.454;2022-11-15T15:54:03;9.73;;;3.80;;
1651;SDS011;823;49.028;8.454;2022-11-15T15:59:04;10.40;;;3.70;;
1651;SDS011;823;49.028;8.454;2022-11-15T16:04:04;14.23;;;3.50;;
1651;SDS011;823;49.028;8.454;2022-11-15T16:09:04;16.88;;;3.45;;
1651;SDS011;823;49.028;8.454;2022-11-15T16:14:05;6.90;;;3.50;;
1651;SDS011;823;49.028;8.454;2022-11-15T16:19:05;7.57;;;3.20;;
1651;SDS011;823;49.028;8.454;2022-11-15T16:24:06;7.00;;;3.50;;
1651;SDS011;823;49.028;8.454;2022-11-15T16:29:07;4.35;;;2.90;;
1651;SDS011;823;49.028;8.454;2022-11-15T16:34:09;6.43;;;3.17;;
1651;SDS011;823;49.028;8.454;2022-11-15T16:39:12;7.93;;;3.35;;
1651;SDS011;823;49.028;8.454;2022-11-15T16:44:18;4.60;;;2.87;;
1651;SDS011;823;49.028;8.454;2022-11-15T16:49:19;8.77;;;3.90;;
1651;SDS011;823;49.028;8.454;2022-11-15T16:54:20;7.63;;;3.63;;
1651;SDS011;823;49.028;8.454;2022-11-15T16:59:20;6.53;;;4.07;;
1651;SDS011;823;49.028;8.454;2022-11-15T17:04:21;8.27;;;4.63;;
1651;SDS011;823;49.028;8.454;2022-11-15T17:09:21;7.00;;;4.47;;
1651;SDS011;823;49.028;8.454;2022-11-15T17:14:23;11.13;;;6.47;;
1651;SDS011;823;49.028;8.454;2022-11-15T17:19:24;7.40;;;4.53;;
1651;SDS011;823;49.028;8.454;2022-11-15T17:24:24;8.13;;;4.25;;
1651;SDS011;823;49.028;8.454;2022-11-15T17:29:24;4.35;;;3.15;;
1651;SDS011;823;49.028;8.454;2022-11-15T17:34:24;6.00;;;3.10;;
1651;SDS011;823;49.028;8.454;2022-11-15T17:39:25;5.63;;;3.20;;
1651;SDS011;823;49.028;8.454;2022-11-15T17:44:25;4.43;;;2.97;;
1651;SDS011;823;49.028;8.454;2022-11-15T17:49:26;6.60;;;3.40;;
1651;SDS011;823;49.028;8.454;2022-11-15T17:54:26;9.10;;;3.83;;
1651;SDS011;823;49.028;8.454;2022-11-15T17:59:26;8.27;;;3.00;;
1651;SDS011;823;49.028;8.454;2022-11-15T18:04:27;5.83;;;3.80;;
1651;SDS011;823;49.028;8.454;2022-11-15T18:09:27;8.50;;;4.93;;
1651;SDS011;823;49.028;8.454;2022-11-15T18:14:28;14.83;;;6.27;;
1651;SDS011;823;49.028;8.454;2022-11-15T18:19:28;12.50;;;5.70;;
1651;SDS011;823;49.028;8.454;2022-11-15T18:24:32;14.10;;;6.53;;
1651;SDS011;823;49.028;8.454;2022-11-15T18:29:34;8.20;;;3.87;;
1651;SDS011;823;49.028;8.454;2022-11-15T18:34:36;7.80;;;3.50;;
1651;SDS011;823;49.028;8.454;2022-11-15T18:39:37;6.43;;;3.70;;
1651;SDS011;823;49.028;8.454;2022-11-15T18:44:37;8.90;;;3.83;;
1651;SDS011;823;49.028;8.454;2022-11-15T18:49:37;10.87;;;6.00;;
1651;SDS011;823;49.028;8.454;2022-11-15T18:54:38;10.90;;;4.40;;
1651;SDS011;823;49.028;8.454;2022-11-15T18:59:38;9.50;;;4.90;;
1651;SDS011;823;49.028;8.454;2022-11-15T19:04:38;13.23;;;7.05;;
1651;SDS011;823;49.028;8.454;2022-11-15T19:09:39;10.90;;;5.82;;
1651;SDS011;823;49.028;8.454;2022-11-15T19:14:39;10.13;;;5.07;;
1651;SDS011;823;49.028;8.454;2022-11-15T19:19:39;16.17;;;7.60;;
1651;SDS011;823;49.028;8.454;2022-11-15T19:24:39;13.73;;;5.27;;
1651;SDS011;823;49.028;8.454;2022-11-15T19:29:40;10.13;;;4.10;;
1651;SDS011;823;49.028;8.454;2022-11-15T19:34:40;15.47;;;5.33;;
1651;SDS011;823;49.028;8.454;2022-11-15T19:39:41;14.60;;;5.40;;
1651;SDS011;823;49.028;8.454;2022-11-15T19:44:41;14.00;;;5.90;;
1651;SDS011;823;49.028;8.454;2022-11-15T19:49:41;12.93;;;6.18;;
1651;SDS011;823;49.028;8.454;2022-11-15T19:54:42;18.40;;;7.33;;
1651;SDS011;823;49.028;8.454;2022-11-15T19:59:42;15.77;;;7.40;;
1651;SDS011;823;49.028;8.454;2022-11-15T20:04:43;12.70;;;6.57;;
1651;SDS011;823;49.028;8.454;2022-11-15T20:09:43;10.63;;;4.93;;
1651;SDS011;823;49.028;8.454;2022-11-15T20:14:43;11.18;;;5.53;;
1651;SDS011;823;49.028;8.454;2022-11-15T20:19:44;12.10;;;6.63;;
1651;SDS011;823;49.028;8.454;2022-11-15T20:24:45;19.20;;;6.47;;
1651;SDS011;823;49.028;8.454;2022-11-15T20:29:45;11.57;;;6.20;;
1651;SDS011;823;49.028;8.454;2022-11-15T20:34:47;17.23;;;6.40;;
1651;SDS011;823;49.028;8.454;2022-11-15T20:39:48;10.20;;;6.03;;
1651;SDS011;823;49.028;8.454;2022-11-15T20:44:48;10.20;;;6.25;;
1651;SDS011;823;49.028;8.454;2022-11-15T20:49:48;11.13;;;6.72;;
1651;SDS011;823;49.028;8.454;2022-11-15T20:54:49;12.30;;;6.50;;
1651;SDS011;823;49.028;8.454;2022-11-15T20:59:49;12.30;;;6.87;;
1651;SDS011;823;49.028;8.454;2022-11-15T21:04:49;10.93;;;6.68;;
1651;SDS011;823;49.028;8.454;2022-11-15T21:09:50;12.10;;;7.47;;
1651;SDS011;823;49.028;8.454;2022-11-15T21:15:08;10.17;;;7.23;;
1651;SDS011;823;49.028;8.454;2022-11-15T21:20:09;14.87;;;8.90;;
1651;SDS011;823;49.028;8.454;2022-11-15T21:25:10;16.13;;;7.77;;
1651;SDS011;823;49.028;8.454;2022-11-15T21:30:11;24.63;;;10.00;;
1651;SDS011;823;49.028;8.454;2022-11-15T21:35:11;26.27;;;9.70;;
1651;SDS011;823;49.028;8.454;2022-11-15T21:40:13;17.90;;;10.07;;
1651;SDS011;823;49.028;8.454;2022-11-15T21:45:13;19.43;;;9.67;;
1651;SDS011;823;49.028;8.454;2022-11-15T21:50:13;24.40;;;10.75;;
1651;SDS011;823;49.028;8.454;2022-11-15T21:55:14;27.37;;;12.27;;
1651;SDS011;823;49.028;8.454;2022-11-15T22:00:14;36.67;;;16.65;;
1651;SDS011;823;49.028;8.454;2022-11-15T22:05:34;23.37;;;11.07;;
1651;SDS011;823;49.028;8.454;2022-11-15T22:10:34;18.57;;;9.03;;
1651;SDS011;823;49.028;8.454;2022-11-15T22:15:34;19.98;;;9.85;;
1651;SDS011;823;49.028;8.454;2022-11-15T22:20:35;25.10;;;11.53;;
1651;SDS011;823;49.028;8.454;2022-11-15T22:25:35;26.00;;;11.90;;
1651;SDS011;823;49.028;8.454;2022-11-15T22:30:35;28.02;;;10.80;;
1651;SDS011;823;49.028;8.454;2022-11-15T22:35:36;22.40;;;8.90;;
1651;SDS011;823;49.028;8.454;2022-11-15T22:40:37;15.83;;;7.73;;
1651;SDS011;823;49.028;8.454;2022-11-15T22:45:45;26.73;;;9.27;;
1651;SDS011;823;49.028;8.454;2022-11-15T22:50:47;17.97;;;7.90;;
1651;SDS011;823;49.028;8.454;2022-11-15T22:55:51;17.40;;;7.70;;
1651;SDS011;823;49.028;8.454;2022-11-15T23:00:54;15.30;;;7.07;;
1651;SDS011;823;49.028;8.454;2022-11-15T23:06:05;18.67;;;8.63;;
1651;SDS011;823;49.028;8.454;2022-11-15T23:11:08;19.10;;;8.47;;
1651;SDS011;823;49.028;8.454;2022-11-15T23:16:28;25.10;;;9.60;;
1651;SDS011;823;49.028;8.454;2022-11-15T23:21:35;16.33;;;7.97;;
1651;SDS011;823;49.028;8.454;2022-11-15T23:26:56;20.30;;;8.80;;
1651;SDS011;823;49.028;8.454;2022-11-15T23:31:58;21.80;;;8.10;;
1651;SDS011;823;49.028;8.454;2022-11-15T23:37:17;22.47;;;8.43;;
1651;SDS011;823;49.028;8.454;2022-11-15T23:42:17;14.02;;;7.38;;
1651;SDS011;823;49.028;8.454;2022-11-15T23:47:20;22.80;;;7.80;;
1651;SDS011;823;49.028;8.454;2022-11-15T23:52:21;14.43;;;7.53;;
1651;SDS011;823;49.028;8.454;2022-11-15T23:57:22;17.63;;;9.07;;
